Time;durP1;ratioP1;P1;durP2;ratioP2;P2;SDS_P1;SDS_P2;PMS_P1;PMS_P2;Temp;Humidity;BMP_temperature;BMP_pressure;BME280_temperature;BME280_humidity;BME280_pressure;Samples;Min_cycle;Max_cycle;Signal;HPM_P1;HPM_P2
2021/04/08 00:02:11;;;;;;;;;;;0.30;99.90;;;-0.78;89.30;96148.84;10399206;28;2287;-80
2021/04/08 00:07:13;;;;;;;;;;;1.30;99.90;;;-0.78;89.58;96148.84;10418427;28;2233;-78
2021/04/08 00:12:15;;;;;;;;;;;0.20;99.90;;;-0.82;88.58;96156.34;10417313;28;2512;-79
2021/04/08 00:17:17;;;;;;;;;;;0.20;99.90;;;-0.81;88.63;96159.81;10390904;28;2311;-78
2021/04/08 00:22:19;;;;;;;;;;;0.20;99.90;;;-0.88;88.03;96153.66;10397349;28;2462;-80
2021/04/08 00:27:21;;;;;;;;;;;0.20;99.90;;;-0.84;88.78;96147.78;10395007;28;2314;-81
2021/04/08 00:32:23;;;;;;;;;;;0.20;99.90;;;-0.87;89.39;96156.09;10400164;28;2375;-80
2021/04/08 00:37:25;;;;;;;;;;;0.20;99.90;;;-0.87;88.41;96142.09;10399923;28;2375;-77
2021/04/08 00:42:27;;;;;;;;;;;1.00;99.90;;;-0.86;88.44;96143.72;10399229;28;2392;-80
2021/04/08 00:47:29;;;;;;;;;;;0.10;99.90;;;-0.95;87.44;96139.63;10394748;28;2740;-79
2021/04/08 00:52:32;;;;;;;;;;;0.10;99.90;;;-0.90;87.84;96132.72;10415764;28;2255;-79
2021/04/08 00:57:35;;;;;;;;;;;0.10;99.90;;;-0.86;87.96;96141.09;10401694;28;2251;-81
2021/04/08 01:02:38;;;;;;;;;;;0.90;99.90;;;-0.86;86.64;96144.53;10398162;28;3311;-81
2021/04/08 01:07:40;;;;;;;;;;;0.10;99.90;;;-0.75;85.21;96150.31;10420966;28;2642;-80
2021/04/08 01:12:42;;;;;;;;;;;0.20;99.90;;;-0.72;85.11;96169.19;10401216;28;2470;-81
2021/04/08 01:17:45;;;;;;;;;;;0.40;99.90;;;-0.86;87.66;96151.66;10404787;28;2554;-80
2021/04/08 01:22:47;;;;;;;;;;;1.80;99.90;;;-0.84;88.20;96146.97;10421686;28;2462;-78
2021/04/08 01:27:49;;;;;;;;;;;0.10;99.90;;;-0.83;85.76;96148.59;10415074;28;2452;-81
2021/04/08 01:32:52;;;;;;;;;;;1.90;99.90;;;-0.82;84.97;96142.34;10407377;28;2432;-80
2021/04/08 01:37:54;;;;;;;;;;;0.20;99.90;;;-0.79;84.08;96157.78;10428643;28;2472;-78
2021/04/08 01:42:56;;;;;;;;;;;0.20;99.90;;;-0.72;83.60;96158.63;10423307;28;2493;-78
2021/04/08 01:48:04;;;;;;;;;;;0.30;99.90;;;-0.62;83.41;96172.31;10410185;28;2384;-79
2021/04/08 01:53:06;;;;;;;;;;;0.30;99.90;;;-0.85;86.51;96167.28;10402404;28;2396;-78
2021/04/08 01:58:08;;;;;;;;;;;0.40;99.90;;;-0.83;85.73;96161.81;10406126;28;2435;-78
2021/04/08 02:03:10;;;;;;;;;;;0.80;99.90;;;-0.78;85.08;96161.22;10402132;28;2496;-77
2021/04/08 02:08:12;;;;;;;;;;;0.50;99.90;;;-0.74;83.96;96162.50;10422199;28;2380;-79
2021/04/08 02:13:14;;;;;;;;;;;0.20;99.90;;;-0.65;81.88;96175.31;10424961;28;2463;-79
2021/04/08 02:18:16;;;;;;;;;;;0.30;99.90;;;-0.75;82.61;96168.78;10420183;28;2679;-79
2021/04/08 02:23:18;;;;;;;;;;;0.30;99.90;;;-0.73;83.18;96167.56;10421104;28;2424;-78
2021/04/08 02:28:20;;;;;;;;;;;1.10;99.90;;;-0.65;82.78;96169.22;10404218;28;2340;-77
2021/04/08 02:33:22;;;;;;;;;;;0.30;99.90;;;-0.60;81.94;96175.56;10422639;28;2518;-77
2021/04/08 02:38:24;;;;;;;;;;;2.40;99.90;;;-0.48;80.22;96182.97;10403099;28;2499;-78
2021/04/08 02:43:26;;;;;;;;;;;0.50;99.90;;;-0.49;80.88;96186.63;10400571;28;2399;-78
2021/04/08 02:48:28;;;;;;;;;;;1.10;99.90;;;-0.55;81.53;96207.50;10418164;28;2843;-79
2021/04/08 02:53:30;;;;;;;;;;;0.50;99.90;;;-0.72;82.56;96206.16;10421673;28;2423;-79
2021/04/08 02:58:32;;;;;;;;;;;0.40;99.90;;;-0.85;84.32;96222.72;10400234;28;2355;-78
2021/04/08 03:03:34;;;;;;;;;;;0.20;99.90;;;-0.95;87.37;96224.88;10405531;28;2467;-79
2021/04/08 03:08:36;;;;;;;;;;;0.10;99.90;;;-1.05;87.84;96229.66;10415368;28;2502;-80
2021/04/08 03:13:38;;;;;;;;;;;0.00;99.90;;;-1.03;88.39;96232.09;10417594;28;2588;-81
2021/04/08 03:18:40;;;;;;;;;;;0.00;99.90;;;-1.06;89.23;96237.75;10425410;28;2464;-80
2021/04/08 03:23:43;;;;;;;;;;;-0.10;99.90;;;-0.97;89.73;96244.53;10409129;28;2453;-78
2021/04/08 03:28:48;;;;;;;;;;;0.00;99.90;;;-0.99;89.50;96246.56;10419704;28;2512;-80
2021/04/08 03:33:50;;;;;;;;;;;0.00;99.90;;;-0.89;89.08;96247.03;10404238;28;2392;-78
2021/04/08 03:38:52;;;;;;;;;;;0.00;99.90;;;-0.95;89.52;96250.44;10399669;28;2436;-78
2021/04/08 03:43:54;;;;;;;;;;;0.00;99.90;;;-1.06;90.35;96250.94;10405450;28;2653;-79
2021/04/08 03:48:56;;;;;;;;;;;0.00;99.90;;;-1.09;90.64;96254.78;10405463;28;2413;-80
2021/04/08 03:53:58;;;;;;;;;;;-0.10;99.90;;;-1.07;90.00;96260.69;10409674;28;2388;-79
2021/04/08 03:59:00;;;;;;;;;;;-0.10;99.90;;;-1.13;90.43;96256.16;10422544;28;2372;-78
2021/04/08 04:04:03;;;;;;;;;;;-0.10;99.90;;;-1.05;90.39;96255.22;10399257;28;2424;-78
2021/04/08 04:09:05;;;;;;;;;;;-0.10;99.90;;;-1.11;89.83;96260.25;10399358;28;2427;-78
2021/04/08 04:14:07;;;;;;;;;;;-0.10;99.90;;;-1.04;89.94;96257.66;10394056;28;2455;-80
2021/04/08 04:19:09;;;;;;;;;;;-0.10;99.90;;;-0.97;90.33;96255.91;10395104;28;2482;-80
2021/04/08 04:24:12;;;;;;;;;;;0.60;99.90;;;-0.83;90.24;96264.75;10397998;28;2847;-79
2021/04/08 04:29:14;;;;;;;;;;;0.10;99.90;;;-0.80;88.23;96271.47;10400157;28;2143;-79
2021/04/08 04:34:19;;;;;;;;;;;0.20;99.90;;;-0.80;85.99;96276.75;10401446;28;2470;-80
2021/04/08 04:39:22;;;;;;;;;;;2.40;99.90;;;-0.82;86.08;96276.97;10402654;28;2319;-77
2021/04/08 04:44:24;;;;;;;;;;;0.10;99.90;;;-0.79;85.21;96279.19;10418153;28;2256;-80
2021/04/08 04:49:26;;;;;;;;;;;1.10;99.90;;;-0.74;85.38;96287.38;10399368;28;2205;-78
2021/04/08 04:54:29;;;;;;;;;;;0.60;99.90;;;-0.73;85.93;96289.00;10394843;28;2248;-79
2021/04/08 04:59:31;;;;;;;;;;;0.30;99.90;;;-0.61;85.32;96291.94;10405725;28;1905;-80
2021/04/08 05:04:33;;;;;;;;;;;0.60;99.90;;;-0.53;84.99;96294.44;10414758;28;2344;-79
2021/04/08 05:09:43;;;;;;;;;;;0.40;99.90;;;-0.47;84.10;96295.50;10402937;28;2222;-79
2021/04/08 05:14:45;;;;;;;;;;;0.50;99.90;;;-0.41;83.16;96310.59;10412870;28;2535;-81
2021/04/08 05:19:50;;;;;;;;;;;1.30;99.90;;;-0.36;83.03;96311.66;10417630;28;2372;-81
2021/04/08 05:24:53;;;;;;;;;;;0.60;99.90;;;-0.26;83.27;96313.94;10400045;28;2312;-80
2021/04/08 05:29:55;;;;;;;;;;;0.60;99.90;;;-0.25;82.39;96320.88;10425882;28;2330;-81
2021/04/08 05:34:58;;;;;;;;;;;0.70;99.90;;;-0.20;80.96;96323.75;10408290;28;2320;-81
2021/04/08 05:40:00;;;;;;;;;;;0.80;99.90;;;-0.15;80.94;96326.63;10413866;28;2287;-78
2021/04/08 05:45:03;;;;;;;;;;;0.80;99.90;;;-0.06;80.76;96333.41;10419204;28;2190;-79
2021/04/08 05:50:05;;;;;;;;;;;2.50;99.90;;;-0.03;79.76;96337.47;10415238;28;2200;-80
2021/04/08 05:55:08;;;;;;;;;;;0.90;99.90;;;0.04;79.59;96350.75;10421103;28;2314;-80
2021/04/08 06:00:10;;;;;;;;;;;1.00;99.90;;;0.22;79.73;96343.13;10408591;28;1946;-80
2021/04/08 06:05:13;;;;;;;;;;;1.20;99.90;;;0.28;79.86;96350.28;10407550;28;2182;-81
2021/04/08 06:10:15;;;;;;;;;;;1.20;99.90;;;0.39;79.03;96357.69;10423150;28;2394;-81
2021/04/08 06:15:18;;;;;;;;;;;1.30;99.90;;;0.37;78.73;96358.88;10425298;28;2785;-79
2021/04/08 06:20:20;;;;;;;;;;;1.60;99.90;;;0.46;78.25;96369.09;10406508;28;2319;-82
2021/04/08 06:25:40;;;;;;;;;;;2.60;99.90;;;0.65;77.94;96385.28;10409316;28;2279;-82
2021/04/08 06:30:44;;;;;;;;;;;1.50;99.90;;;0.72;76.97;96389.59;10402074;28;2182;-80
2021/04/08 06:35:46;;;;;;;;;;;1.60;99.90;;;0.77;77.16;96391.66;10413059;28;2359;-81
2021/04/08 06:40:50;;;;;;;;;;;1.70;99.90;;;1.05;76.02;96397.66;10409989;28;2359;-79
2021/04/08 06:45:52;;;;;;;;;;;1.90;99.90;;;1.25;75.21;96400.34;10414913;28;2378;-79
2021/04/08 06:50:54;;;;;;;;;;;3.50;99.90;;;1.24;74.38;96396.09;10414159;28;2387;-82
2021/04/08 06:55:56;;;;;;;;;;;3.40;99.90;;;1.15;74.65;96401.78;10433954;28;2245;-82
2021/04/08 07:00:59;;;;;;;;;;;3.70;99.90;;;1.45;74.45;96400.41;10418739;28;2319;-79
2021/04/08 07:06:05;;;;;;;;;;;2.10;99.90;;;1.58;74.51;96405.72;10416285;28;2335;-82
2021/04/08 07:11:12;;;;;;;;;;;4.00;99.90;;;1.19;73.84;96411.75;10416462;28;2505;-81
2021/04/08 07:16:16;;;;;;;;;;;4.20;99.90;;;1.16;75.09;96420.09;10429224;28;2446;-82
2021/04/08 07:21:18;;;;;;;;;;;2.10;99.90;;;1.31;74.29;96425.22;10410572;28;2292;-80
2021/04/08 07:26:20;;;;;;;;;;;2.10;99.90;;;1.46;73.52;96428.53;10415563;28;2342;-80
2021/04/08 07:31:23;;;;;;;;;;;2.30;99.90;;;1.26;73.49;96436.41;10420534;28;2239;-81
2021/04/08 07:36:25;;;;;;;;;;;3.60;99.90;;;0.82;76.08;96452.72;10413158;28;2217;-82
2021/04/08 07:41:27;;;;;;;;;;;2.80;99.90;;;0.70;79.79;96449.00;10416048;28;2403;-81
2021/04/08 07:46:29;;;;;;;;;;;1.70;99.90;;;0.63;81.12;96456.06;10411430;28;2405;-81
2021/04/08 07:51:32;;;;;;;;;;;2.50;99.90;;;0.46;82.70;96466.97;10414847;28;2320;-79
2021/04/08 07:56:34;;;;;;;;;;;1.30;99.90;;;0.78;81.05;96473.50;10408344;28;2453;-80
2021/04/08 08:01:36;;;;;;;;;;;2.80;99.90;;;1.39;80.06;96467.44;10422631;28;2431;-79
2021/04/08 08:06:38;;;;;;;;;;;1.70;99.90;;;1.53;78.45;96470.97;10431904;28;2307;-81
2021/04/08 08:11:40;;;;;;;;;;;2.10;99.90;;;1.88;77.64;96480.41;10414603;28;2586;-81
2021/04/08 08:16:43;;;;;;;;;;;2.40;99.90;;;2.08;75.82;96492.88;10435862;28;2347;-81
2021/04/08 08:21:45;;;;;;;;;;;2.60;99.90;;;2.02;76.34;96497.16;10433752;28;1938;-81
2021/04/08 08:26:47;;;;;;;;;;;3.60;99.90;;;1.99;77.08;96496.75;10441265;28;2163;-82
2021/04/08 08:31:50;;;;;;;;;;;2.40;99.90;;;1.51;77.83;96505.59;10433073;28;2459;-81
2021/04/08 08:36:56;;;;;;;;;;;3.00;99.90;;;1.28;78.63;96515.69;10433392;28;2243;-80
2021/04/08 08:42:01;;;;;;;;;;;2.30;99.90;;;1.54;78.86;96515.00;10437287;28;2368;-81
2021/04/08 08:47:04;;;;;;;;;;;2.90;99.90;;;1.58;80.31;96517.03;10443658;28;2294;-81
2021/04/08 08:52:06;;;;;;;;;;;2.20;99.90;;;2.11;79.84;96511.84;10442743;28;2776;-78
2021/04/08 08:57:09;;;;;;;;;;;2.50;99.90;;;1.87;78.46;96523.03;10451409;28;2390;-79
2021/04/08 09:02:11;;;;;;;;;;;2.60;99.90;;;2.53;76.75;96519.63;10428168;28;2243;-81
2021/04/08 09:07:15;;;;;;;;;;;3.80;99.90;;;3.18;75.30;96516.06;10446873;28;2386;-79
2021/04/08 09:12:19;;;;;;;;;;;3.60;99.90;;;3.29;71.01;96513.78;10413170;28;2435;-79
2021/04/08 09:17:21;;;;;;;;;;;4.10;99.90;;;3.92;68.67;96513.91;10409382;28;2689;-76
2021/04/08 09:22:23;;;;;;;;;;;5.10;99.90;;;4.26;65.55;96510.84;10427965;28;2323;-79
2021/04/08 09:27:29;;;;;;;;;;;5.10;99.90;;;4.03;65.88;96505.25;10435357;28;2283;-80
2021/04/08 09:32:33;;;;;;;;;;;6.90;99.90;;;3.75;65.28;96505.59;10436900;28;2339;-78
2021/04/08 09:37:41;;;;;;;;;;;4.70;99.90;;;3.31;64.72;96501.94;10407872;28;2066;-79
2021/04/08 09:42:45;;;;;;;;;;;5.80;99.90;;;3.19;65.48;96496.44;10420461;28;2146;-79
2021/04/08 09:47:48;;;;;;;;;;;3.90;99.90;;;3.27;63.24;96497.25;10399183;28;2419;-77
2021/04/08 09:52:59;;;;;;;;;;;5.80;99.90;;;3.28;63.97;96493.53;10415484;28;2458;-78
2021/04/08 09:58:19;;;;;;;;;;;4.60;99.90;;;3.75;61.30;96500.28;10414469;28;2104;-79
2021/04/08 10:03:39;;;;;;;;;;;4.20;99.90;;;4.26;61.02;96496.69;10433236;28;2314;-78
2021/04/08 10:08:47;;;;;;;;;;;4.80;99.90;;;4.18;59.49;96492.44;10414431;28;2327;-78
2021/04/08 10:13:56;;;;;;;;;;;6.10;99.90;;;4.57;58.73;96491.31;10430096;28;2392;-79
2021/04/08 10:19:06;;;;;;;;;;;5.20;99.90;;;4.70;57.93;96495.72;10417561;28;2354;-79
2021/04/08 10:24:14;;;;;;;;;;;6.50;99.90;;;4.34;58.58;96496.44;10426098;28;2319;-79
2021/04/08 10:34:39;;;;;;;;;;;5.30;99.90;;;3.62;59.83;96500.34;10424464;28;2121;-79
2021/04/08 10:39:45;;;;;;;;;;;4.70;99.90;;;3.55;65.35;96494.25;10421026;28;2331;-74
2021/04/08 10:44:47;;;;;;;;;;;4.40;99.90;;;3.87;66.03;96492.44;10397618;28;2559;-78
2021/04/08 10:49:50;;;;;;;;;;;4.50;99.90;;;4.47;66.33;96499.00;10394739;28;2712;-77
2021/04/08 10:54:52;;;;;;;;;;;4.90;99.90;;;4.66;61.54;96491.06;10414749;28;2395;-76
2021/04/08 10:59:54;;;;;;;;;;;5.40;99.90;;;4.64;58.73;96490.44;10399633;28;2398;-77
2021/04/08 11:04:56;;;;;;;;;;;5.30;99.90;;;4.49;58.25;96494.25;10388641;28;2390;-79
2021/04/08 11:09:58;;;;;;;;;;;5.30;99.90;;;4.52;60.71;96493.03;10396882;28;2197;-79
2021/04/08 11:15:00;;;;;;;;;;;6.50;99.90;;;4.85;57.71;96488.22;10400339;28;2426;-79
2021/04/08 11:20:02;;;;;;;;;;;5.80;99.90;;;4.50;57.99;96497.75;10387434;28;2404;-77
2021/04/08 11:25:04;;;;;;;;;;;5.60;99.90;;;3.31;63.64;96495.78;10399294;28;2320;-77
2021/04/08 11:30:05;;;;;;;;;;;5.30;99.90;;;2.92;64.46;96498.31;10414264;28;2197;-78
2021/04/08 11:35:07;;;;;;;;;;;5.40;99.90;;;3.16;65.89;96485.41;10408591;28;2312;-78
2021/04/08 11:40:09;;;;;;;;;;;3.90;99.90;;;3.66;63.29;96491.75;10417525;28;2391;-80
2021/04/08 11:45:11;;;;;;;;;;;4.30;99.90;;;4.50;62.53;96471.13;10390831;28;2317;-78
2021/04/08 11:50:12;;;;;;;;;;;4.00;99.90;;;4.64;60.13;96475.28;10413305;28;2339;-79
2021/04/08 11:55:14;;;;;;;;;;;6.10;99.90;;;5.01;57.95;96472.69;10421964;28;2226;-78
2021/04/08 12:00:22;;;;;;;;;;;5.50;99.90;;;5.54;58.93;96461.41;10405776;28;2229;-79
2021/04/08 12:05:24;;;;;;;;;;;6.00;99.90;;;6.33;54.06;96452.28;10430534;28;2264;-78
2021/04/08 12:10:26;;;;;;;;;;;6.70;99.90;;;6.21;55.40;96454.13;10411165;28;2324;-79
2021/04/08 12:15:27;;;;;;;;;;;7.00;99.90;;;6.16;52.31;96451.31;10425713;28;2864;-78
2021/04/08 12:20:29;;;;;;;;;;;7.10;99.90;;;5.37;53.62;96453.22;10417970;28;2371;-78
2021/04/08 12:25:31;;;;;;;;;;;6.60;99.90;;;4.80;58.91;96457.94;10421226;28;2169;-76
2021/04/08 12:30:33;;;;;;;;;;;6.50;99.90;;;4.58;57.01;96455.69;10418437;28;2185;-79
2021/04/08 12:35:35;;;;;;;;;;;5.50;99.90;;;5.61;55.79;96432.81;10399888;28;2236;-78
2021/04/08 12:40:37;;;;;;;;;;;6.10;99.90;;;5.88;53.37;96427.91;10418480;28;2300;-79
2021/04/08 12:45:39;;;;;;;;;;;6.60;99.90;;;5.55;54.02;96420.38;10398732;28;2397;-79
2021/04/08 12:50:41;;;;;;;;;;;6.40;98.40;;;5.77;54.57;96418.81;10416738;28;2418;-79
2021/04/08 12:55:45;;;;;;;;;;;6.80;97.80;;;6.55;49.06;96407.13;10401957;28;2271;-78
2021/04/08 13:00:46;;;;;;;;;;;7.10;95.70;;;6.54;50.02;96410.84;10426625;28;2232;-79
2021/04/08 13:05:48;;;;;;;;;;;8.70;95.00;;;6.61;48.98;96413.41;10434532;28;2331;-79
2021/04/08 13:10:50;;;;;;;;;;;7.70;91.70;;;6.15;48.16;96407.78;10440350;28;2272;-78
2021/04/08 13:15:53;;;;;;;;;;;7.20;89.50;;;6.08;48.74;96411.63;10422221;28;2831;-78
2021/04/08 13:20:54;;;;;;;;;;;7.00;89.50;;;5.60;50.76;96404.50;10426773;28;2384;-79
2021/04/08 13:25:57;;;;;;;;;;;6.70;91.00;;;5.92;50.95;96400.56;10427974;28;2359;-80
2021/04/08 13:30:59;;;;;;;;;;;6.60;91.50;;;6.47;51.82;96389.59;10423464;28;2323;-78
2021/04/08 13:36:00;;;;;;;;;;;7.70;93.30;;;7.19;53.08;96391.13;10405710;28;2216;-80
2021/04/08 13:41:03;;;;;;;;;;;7.90;93.00;;;7.05;49.49;96378.03;10425595;28;2469;-78
2021/04/08 13:46:05;;;;;;;;;;;7.90;90.20;;;6.90;48.65;96377.72;10427144;28;2296;-79
2021/04/08 13:51:07;;;;;;;;;;;7.90;88.70;;;6.45;52.19;96383.69;10419205;28;2391;-79
2021/04/08 13:56:09;;;;;;;;;;;7.60;90.00;;;6.60;50.31;96385.06;10426857;28;2363;-79
2021/04/08 14:01:10;;;;;;;;;;;7.50;90.60;;;6.13;52.40;96367.19;10424800;28;2363;-79
2021/04/08 14:06:12;;;;;;;;;;;8.00;90.10;;;5.92;50.06;96386.44;10410463;28;2257;-79
2021/04/08 14:11:14;;;;;;;;;;;7.00;87.80;;;5.70;49.20;96378.91;10430401;28;2345;-79
2021/04/08 14:16:20;;;;;;;;;;;6.70;87.80;;;5.72;52.72;96373.31;10426127;28;2201;-79
2021/04/08 14:21:21;;;;;;;;;;;7.40;90.80;;;5.78;52.57;96371.59;10420254;28;2229;-79
2021/04/08 14:26:23;;;;;;;;;;;7.20;90.30;;;5.85;51.52;96377.66;10427866;28;2307;-78
2021/04/08 14:31:25;;;;;;;;;;;6.70;88.90;;;6.18;50.17;96366.50;10410462;28;2319;-82
2021/04/08 14:36:27;;;;;;;;;;;7.60;89.60;;;6.34;48.81;96360.44;10433771;28;2414;-82
2021/04/08 14:41:29;;;;;;;;;;;7.70;87.60;;;6.56;49.67;96354.53;10433824;28;2264;-82
2021/04/08 14:46:31;;;;;;;;;;;7.30;87.30;;;5.98;52.17;96350.81;10430108;28;2518;-82
2021/04/08 14:51:33;;;;;;;;;;;7.70;88.10;;;6.23;51.18;96346.09;10415545;28;2237;-81
2021/04/08 14:56:35;;;;;;;;;;;7.10;87.60;;;6.08;47.75;96332.34;10429296;28;2036;-81
2021/04/08 15:01:39;;;;;;;;;;;7.20;84.60;;;6.01;48.34;96331.66;10411670;28;2289;-83
2021/04/08 15:06:40;;;;;;;;;;;7.20;84.50;;;5.67;48.55;96330.53;10436138;28;2009;-81
2021/04/08 15:11:42;;;;;;;;;;;6.90;83.70;;;5.73;48.93;96318.97;10427381;28;2463;-81
2021/04/08 15:16:44;;;;;;;;;;;6.80;84.30;;;5.87;48.14;96314.22;10403268;28;2381;-80
2021/04/08 15:22:04;;;;;;;;;;;8.40;84.60;;;6.06;47.66;96306.97;10444540;28;2231;-81
2021/04/08 15:27:12;;;;;;;;;;;7.00;84.10;;;6.05;46.94;96305.34;10423056;28;2212;-83
2021/04/08 15:32:15;;;;;;;;;;;7.10;82.60;;;5.72;46.10;96306.63;10428451;28;2247;-77
2021/04/08 15:37:24;;;;;;;;;;;7.60;81.30;;;5.76;47.20;96310.47;10405285;28;2323;-78
2021/04/08 15:42:26;;;;;;;;;;;8.10;82.60;;;5.68;45.19;96302.81;10423670;28;2315;-78
2021/04/08 15:47:30;;;;;;;;;;;7.80;80.50;;;5.76;46.04;96297.16;10419873;28;2471;-79
2021/04/08 15:52:41;;;;;;;;;;;6.80;80.80;;;5.96;46.45;96297.66;10415215;28;1940;-79
2021/04/08 15:57:44;;;;;;;;;;;8.00;81.40;;;5.82;44.58;96304.22;10423573;28;2316;-78
2021/04/08 16:02:47;;;;;;;;;;;8.60;79.50;;;5.69;44.33;96304.44;10429513;28;2386;-78
2021/04/08 16:07:49;;;;;;;;;;;8.50;78.70;;;5.58;44.48;96300.72;10418246;28;2423;-79
2021/04/08 16:12:51;;;;;;;;;;;6.70;77.70;;;5.52;45.83;96284.81;10421119;28;2711;-79
2021/04/08 16:17:52;;;;;;;;;;;7.30;78.80;;;5.32;45.08;96291.25;10412376;28;2849;-77
2021/04/08 16:22:54;;;;;;;;;;;6.60;77.20;;;5.27;46.74;96287.63;10407701;28;2771;-77
2021/04/08 16:27:56;;;;;;;;;;;6.40;79.10;;;5.18;47.66;96283.69;10413880;28;2355;-79
2021/04/08 16:32:58;;;;;;;;;;;6.50;79.60;;;5.09;46.24;96294.69;10425343;28;2272;-78
2021/04/08 16:38:00;;;;;;;;;;;6.30;78.30;;;5.13;46.44;96289.69;10400098;28;2724;-79
2021/04/08 16:43:02;;;;;;;;;;;6.80;78.20;;;4.93;46.51;96283.81;10415824;28;1611;-75
2021/04/08 16:48:04;;;;;;;;;;;6.10;78.00;;;4.89;46.02;96286.91;10406400;28;1367;-78
2021/04/08 16:53:06;;;;;;;;;;;6.20;77.70;;;4.78;46.73;96277.06;10417875;28;1721;-79
2021/04/08 16:58:07;;;;;;;;;;;6.00;78.70;;;4.74;47.12;96283.84;10418730;28;1898;-77
2021/04/08 17:03:09;;;;;;;;;;;5.90;79.00;;;4.76;49.17;96270.31;10410230;28;1620;-79
2021/04/08 17:08:12;;;;;;;;;;;5.90;80.50;;;4.55;49.29;96268.94;10404923;28;1559;-78
2021/04/08 17:13:14;;;;;;;;;;;5.80;80.50;;;4.37;49.88;96274.25;10433949;28;2430;-78
2021/04/08 17:18:15;;;;;;;;;;;6.50;81.70;;;4.18;50.93;96279.56;10428369;28;1898;-77
2021/04/08 17:23:17;;;;;;;;;;;5.50;81.90;;;4.06;50.70;96286.66;10427529;28;2296;-80
2021/04/08 17:28:19;;;;;;;;;;;6.00;82.40;;;3.89;51.04;96289.09;10401581;28;2275;-78
2021/04/08 17:33:23;;;;;;;;;;;5.60;82.30;;;3.77;50.73;96278.34;10429672;28;2347;-78
2021/04/08 17:38:26;;;;;;;;;;;5.00;82.50;;;3.63;51.25;96284.00;10407390;28;2019;-77
2021/04/08 17:43:29;;;;;;;;;;;4.90;82.80;;;3.45;52.01;96279.44;10416320;28;2836;-77
2021/04/08 17:48:32;;;;;;;;;;;4.80;83.00;;;3.32;53.08;96274.22;10434456;28;2574;-78
2021/04/08 17:53:39;;;;;;;;;;;4.60;83.80;;;3.33;53.30;96286.47;10423447;28;2343;-78
2021/04/08 17:58:45;;;;;;;;;;;4.50;84.90;;;3.04;54.23;96280.72;10421637;28;2389;-79
2021/04/08 18:03:47;;;;;;;;;;;4.30;85.30;;;3.07;54.50;96277.66;10415575;28;2493;-78
2021/04/08 18:08:49;;;;;;;;;;;4.70;86.10;;;2.98;54.27;96277.06;10414696;28;2478;-78
2021/04/08 18:14:06;;;;;;;;;;;4.20;86.00;;;2.90;56.00;96281.81;10402640;28;3061;-78
2021/04/08 18:19:13;;;;;;;;;;;5.80;87.90;;;2.95;55.57;96279.34;10395120;28;2395;-77
2021/04/08 18:24:24;;;;;;;;;;;5.40;88.30;;;2.99;55.93;96277.91;10394291;28;2427;-76
2021/04/08 18:29:30;;;;;;;;;;;4.40;88.00;;;2.88;56.91;96278.56;10400751;28;2481;-77
2021/04/08 18:34:35;;;;;;;;;;;4.00;88.50;;;2.79;58.39;96290.44;10410834;28;2430;-76
2021/04/08 18:39:39;;;;;;;;;;;4.80;90.40;;;2.69;58.62;96289.09;10411899;28;2473;-76
2021/04/08 18:44:44;;;;;;;;;;;3.70;90.30;;;2.64;59.31;96294.19;10405815;28;2371;-79
2021/04/08 18:49:46;;;;;;;;;;;3.80;91.20;;;2.47;60.01;96293.03;10400030;28;2386;-80
2021/04/08 18:54:48;;;;;;;;;;;3.60;92.20;;;2.42;60.92;96292.88;10411043;28;2669;-79
2021/04/08 18:59:50;;;;;;;;;;;3.60;93.00;;;2.24;62.19;96288.22;10397476;28;2316;-78
2021/04/08 19:05:01;;;;;;;;;;;3.50;93.80;;;2.31;61.60;96298.81;10425763;28;2106;-78
2021/04/08 19:10:11;;;;;;;;;;;3.40;94.30;;;2.04;63.30;96298.09;10416411;28;2260;-77
2021/04/08 19:15:24;;;;;;;;;;;4.70;95.90;;;2.01;63.60;96304.59;10423269;28;2433;-78
2021/04/08 19:20:28;;;;;;;;;;;4.60;97.00;;;1.90;63.99;96298.06;10427301;28;2359;-75
2021/04/08 19:25:30;;;;;;;;;;;5.00;97.60;;;1.80;65.68;96302.19;10416658;28;2374;-77
2021/04/08 19:30:47;;;;;;;;;;;3.00;97.90;;;1.81;65.44;96298.50;10411512;28;2393;-79
2021/04/08 19:36:05;;;;;;;;;;;3.00;98.70;;;1.74;65.85;96297.69;10452541;28;1973;-79
2021/04/08 19:41:14;;;;;;;;;;;2.90;99.30;;;1.82;65.70;96292.19;10430398;28;1578;-77
2021/04/08 19:46:24;;;;;;;;;;;3.60;99.90;;;1.79;65.80;96280.16;10430849;28;1440;-76
2021/04/08 19:51:39;;;;;;;;;;;4.00;99.90;;;1.63;67.58;96281.38;10422628;28;1629;-80
2021/04/08 19:57:01;;;;;;;;;;;3.60;99.90;;;1.54;67.70;96287.94;10423926;28;1988;-77
2021/04/08 20:02:15;;;;;;;;;;;3.60;99.90;;;1.52;67.68;96279.34;10422839;28;1531;-79
2021/04/08 20:07:18;;;;;;;;;;;3.70;99.90;;;1.52;67.77;96278.53;10432653;28;1469;-79
2021/04/08 20:12:26;;;;;;;;;;;3.10;99.90;;;1.52;67.79;96268.75;10417472;28;1665;-78
2021/04/08 20:17:28;;;;;;;;;;;2.70;99.90;;;1.53;68.56;96275.69;10419469;28;1963;-79
2021/04/08 20:22:31;;;;;;;;;;;2.60;99.90;;;1.49;68.71;96271.00;10406400;28;1651;-78
2021/04/08 20:27:34;;;;;;;;;;;2.60;99.90;;;1.43;68.54;96269.16;10414581;28;1446;-79
2021/04/08 20:32:38;;;;;;;;;;;2.60;99.90;;;1.32;69.49;96270.59;10428788;28;2986;-79
2021/04/08 20:37:41;;;;;;;;;;;4.00;99.90;;;1.10;70.87;96266.50;10402041;28;1996;-79
2021/04/08 20:42:43;;;;;;;;;;;2.30;99.90;;;1.13;71.08;96258.16;10412415;28;1252;-78
2021/04/08 20:47:46;;;;;;;;;;;2.40;99.90;;;1.09;71.31;96249.81;10421995;28;1615;-79
2021/04/08 20:52:48;;;;;;;;;;;2.20;99.90;;;1.13;71.67;96242.25;10424524;28;1583;-76
2021/04/08 20:58:04;;;;;;;;;;;2.30;99.90;;;1.18;70.90;96234.53;10424777;28;1914;-77
2021/04/08 21:03:07;;;;;;;;;;;2.30;99.90;;;1.19;71.15;96236.16;10414084;28;1642;-80
2021/04/08 21:08:13;;;;;;;;;;;2.20;99.90;;;1.02;71.75;96241.88;10418977;28;1438;-76
2021/04/08 21:13:15;;;;;;;;;;;2.60;99.90;;;0.81;72.51;96240.19;10412176;28;1556;-78
2021/04/08 21:18:21;;;;;;;;;;;2.20;99.90;;;0.66;74.03;96239.56;10418863;28;1913;-78
2021/04/08 21:23:23;;;;;;;;;;;3.60;99.90;;;0.80;73.65;96232.44;10404050;28;2345;-76
2021/04/08 21:28:26;;;;;;;;;;;2.00;99.90;;;0.79;73.46;96236.94;10431792;28;2553;-78
2021/04/08 21:33:28;;;;;;;;;;;1.90;99.90;;;0.75;73.52;96226.94;10427536;28;2481;-78
2021/04/08 21:38:30;;;;;;;;;;;3.40;99.90;;;0.65;74.01;96218.59;10425924;28;2247;-78
2021/04/08 21:43:32;;;;;;;;;;;1.80;99.90;;;0.51;74.29;96221.22;10404213;28;2700;-78
2021/04/08 21:48:34;;;;;;;;;;;3.00;99.90;;;0.53;74.47;96213.88;10421916;28;2649;-78
2021/04/08 21:53:36;;;;;;;;;;;2.30;99.90;;;0.41;75.21;96217.31;10419095;28;2285;-78
2021/04/08 21:58:38;;;;;;;;;;;1.70;99.90;;;0.38;75.02;96215.88;10400758;28;2221;-79
2021/04/08 22:03:40;;;;;;;;;;;1.60;99.90;;;0.28;75.20;96218.06;10418028;28;2279;-81
2021/04/08 22:08:43;;;;;;;;;;;3.00;99.90;;;0.32;75.24;96211.38;10419438;28;2586;-79
2021/04/08 22:13:45;;;;;;;;;;;1.50;99.90;;;0.29;75.38;96201.19;10402232;28;2361;-79
2021/04/08 22:18:48;;;;;;;;;;;1.50;99.90;;;0.09;75.32;96197.66;10401911;28;2836;-78
2021/04/08 22:23:53;;;;;;;;;;;1.70;99.90;;;0.12;75.88;96198.06;10420150;28;2239;-78
2021/04/08 22:28:55;;;;;;;;;;;1.50;99.90;;;-0.01;76.32;96203.31;10431827;28;1932;-78
2021/04/08 22:33:59;;;;;;;;;;;2.20;99.90;;;-0.07;76.52;96204.91;10419375;28;2204;-78
2021/04/08 22:39:03;;;;;;;;;;;2.90;99.90;;;-0.11;77.40;96190.47;10400139;28;2875;-77
2021/04/08 22:44:05;;;;;;;;;;;1.10;99.90;;;-0.12;76.76;96191.50;10394087;28;2303;-76
2021/04/08 22:49:07;;;;;;;;;;;3.00;99.90;;;-0.27;77.18;96182.84;10407329;28;2382;-78
2021/04/08 22:54:09;;;;;;;;;;;2.20;99.90;;;-0.24;76.83;96182.47;10412340;28;2508;-77
2021/04/08 22:59:12;;;;;;;;;;;2.50;99.90;;;-0.35;77.91;96185.66;10396002;28;2323;-76
2021/04/08 23:04:14;;;;;;;;;;;1.50;99.90;;;-0.23;76.73;96180.66;10394122;28;2438;-78
2021/04/08 23:09:17;;;;;;;;;;;1.90;99.90;;;-0.17;76.30;96170.13;10397038;28;2260;-75
2021/04/08 23:14:19;;;;;;;;;;;2.90;99.90;;;-0.26;76.38;96158.06;10397815;28;2519;-78
2021/04/08 23:19:21;;;;;;;;;;;1.40;99.90;;;-0.23;76.33;96155.06;10394125;28;2316;-77
2021/04/08 23:24:23;;;;;;;;;;;2.20;99.90;;;-0.34;76.26;96160.88;10403958;28;2417;-79
2021/04/08 23:29:25;;;;;;;;;;;0.90;99.90;;;-0.28;75.63;96150.34;10398111;28;2252;-78
2021/04/08 23:34:27;;;;;;;;;;;2.30;99.90;;;-0.23;75.50;96141.03;10428335;28;2294;-80
2021/04/08 23:39:29;;;;;;;;;;;1.00;99.90;;;-0.17;75.18;96143.69;10438830;28;2383;-78
2021/04/08 23:44:32;;;;;;;;;;;1.60;99.90;;;-0.20;75.78;96135.34;10444163;28;2375;-78
2021/04/08 23:49:35;;;;;;;;;;;0.90;99.90;;;-0.17;75.30;96133.13;10428538;28;2276;-77